sensor_id;sensor_type;location;lat;lon;timestamp;pressure;altitude;pressure_sealevel;temperature;humidity
58967;BME280;44744;51.894;5.080;2024-01-30T00:02:56;102715.79;;;7.72;91.51
58967;BME280;44744;51.894;5.080;2024-01-30T00:07:57;102712.33;;;7.67;91.61
58967;BME280;44744;51.894;5.080;2024-01-30T00:12:57;102707.63;;;7.64;91.62
58967;BME280;44744;51.894;5.080;2024-01-30T00:17:58;102701.69;;;7.59;91.63
58967;BME280;44744;51.894;5.080;2024-01-30T00:22:58;102703.68;;;7.56;91.83
58967;BME280;44744;51.894;5.080;2024-01-30T00:28:01;102698.27;;;7.52;92.00
58967;BME280;44744;51.894;5.080;2024-01-30T00:33:02;102692.66;;;7.49;91.99
58967;BME280;44744;51.894;5.080;2024-01-30T00:38:03;102688.96;;;7.49;92.12
58967;BME280;44744;51.894;5.080;2024-01-30T00:43:03;102687.04;;;7.47;91.99
58967;BME280;44744;51.894;5.080;2024-01-30T00:48:04;102686.19;;;7.46;92.16
58967;BME280;44744;51.894;5.080;2024-01-30T00:53:04;102691.84;;;7.44;92.11
58967;BME280;44744;51.894;5.080;2024-01-30T00:58:05;102694.00;;;7.41;92.18
58967;BME280;44744;51.894;5.080;2024-01-30T01:03:05;102687.48;;;7.40;92.38
58967;BME280;44744;51.894;5.080;2024-01-30T01:08:06;102681.85;;;7.40;92.24
58967;BME280;44744;51.894;5.080;2024-01-30T01:13:07;102677.45;;;7.40;92.46
58967;BME280;44744;51.894;5.080;2024-01-30T01:18:07;102668.49;;;7.39;92.39
58967;BME280;44744;51.894;5.080;2024-01-30T01:23:08;102663.77;;;7.38;92.60
58967;BME280;44744;51.894;5.080;2024-01-30T01:28:08;102666.59;;;7.36;92.71
58967;BME280;44744;51.894;5.080;2024-01-30T01:33:08;102666.26;;;7.34;92.87
58967;BME280;44744;51.894;5.080;2024-01-30T01:38:09;102664.68;;;7.33;92.72
58967;BME280;44744;51.894;5.080;2024-01-30T01:43:10;102659.75;;;7.34;93.03
58967;BME280;44744;51.894;5.080;2024-01-30T01:48:10;102655.33;;;7.35;92.87
58967;BME280;44744;51.894;5.080;2024-01-30T01:53:12;102653.59;;;7.35;92.87
58967;BME280;44744;51.894;5.080;2024-01-30T01:58:14;102650.41;;;7.35;92.88
58967;BME280;44744;51.894;5.080;2024-01-30T02:03:17;102649.03;;;7.33;92.78
58967;BME280;44744;51.894;5.080;2024-01-30T02:08:19;102655.41;;;7.29;92.59
58967;BME280;44744;51.894;5.080;2024-01-30T02:13:21;102656.54;;;7.24;92.67
58967;BME280;44744;51.894;5.080;2024-01-30T02:18:22;102653.98;;;7.17;92.64
58967;BME280;44744;51.894;5.080;2024-01-30T02:23:24;102642.42;;;7.12;92.73
58967;BME280;44744;51.894;5.080;2024-01-30T02:28:27;102643.11;;;7.13;92.74
58967;BME280;44744;51.894;5.080;2024-01-30T02:33:27;102635.94;;;7.10;92.79
58967;BME280;44744;51.894;5.080;2024-01-30T02:38:28;102633.66;;;7.09;92.96
58967;BME280;44744;51.894;5.080;2024-01-30T02:43:29;102634.20;;;7.08;92.99
58967;BME280;44744;51.894;5.080;2024-01-30T02:48:29;102635.23;;;7.10;93.04
58967;BME280;44744;51.894;5.080;2024-01-30T02:53:29;102622.73;;;7.11;93.28
58967;BME280;44744;51.894;5.080;2024-01-30T02:58:30;102615.50;;;7.12;93.28
58967;BME280;44744;51.894;5.080;2024-01-30T03:03:30;102618.02;;;7.08;93.25
58967;BME280;44744;51.894;5.080;2024-01-30T03:08:31;102619.09;;;7.05;93.24
58967;BME280;44744;51.894;5.080;2024-01-30T03:13:32;102621.94;;;7.03;93.03
58967;BME280;44744;51.894;5.080;2024-01-30T03:18:32;102617.91;;;7.01;93.44
58967;BME280;44744;51.894;5.080;2024-01-30T03:23:32;102610.39;;;6.99;93.22
58967;BME280;44744;51.894;5.080;2024-01-30T03:28:33;102602.33;;;6.96;93.42
58967;BME280;44744;51.894;5.080;2024-01-30T03:33:33;102607.79;;;6.95;93.48
58967;BME280;44744;51.894;5.080;2024-01-30T03:38:34;102606.39;;;6.94;93.57
58967;BME280;44744;51.894;5.080;2024-01-30T03:43:35;102607.27;;;6.94;93.82
58967;BME280;44744;51.894;5.080;2024-01-30T03:48:35;102603.91;;;6.97;93.76
58967;BME280;44744;51.894;5.080;2024-01-30T03:53:36;102607.02;;;7.00;93.83
58967;BME280;44744;51.894;5.080;2024-01-30T03:58:36;102613.17;;;7.01;93.92
58967;BME280;44744;51.894;5.080;2024-01-30T04:03:37;102615.95;;;7.04;93.94
58967;BME280;44744;51.894;5.080;2024-01-30T04:08:37;102611.53;;;7.05;93.95
58967;BME280;44744;51.894;5.080;2024-01-30T04:13:37;102599.76;;;7.04;94.01
58967;BME280;44744;51.894;5.080;2024-01-30T04:18:38;102595.70;;;7.06;94.00
58967;BME280;44744;51.894;5.080;2024-01-30T04:23:42;102590.39;;;7.08;94.19
58967;BME280;44744;51.894;5.080;2024-01-30T04:28:44;102584.55;;;7.10;94.33
58967;BME280;44744;51.894;5.080;2024-01-30T04:33:45;102584.85;;;7.14;94.35
58967;BME280;44744;51.894;5.080;2024-01-30T04:38:45;102585.16;;;7.18;94.38
58967;BME280;44744;51.894;5.080;2024-01-30T04:43:45;102583.17;;;7.22;94.30
58967;BME280;44744;51.894;5.080;2024-01-30T04:48:46;102580.82;;;7.26;94.58
58967;BME280;44744;51.894;5.080;2024-01-30T04:53:46;102578.30;;;7.31;94.61
58967;BME280;44744;51.894;5.080;2024-01-30T04:58:47;102581.77;;;7.36;94.64
58967;BME280;44744;51.894;5.080;2024-01-30T05:03:47;102570.77;;;7.42;94.76
58967;BME280;44744;51.894;5.080;2024-01-30T05:08:47;102580.90;;;7.47;94.81
58967;BME280;44744;51.894;5.080;2024-01-30T05:13:48;102565.88;;;7.51;94.76
58967;BME280;44744;51.894;5.080;2024-01-30T05:18:48;102564.02;;;7.57;94.97
58967;BME280;44744;51.894;5.080;2024-01-30T05:23:49;102565.52;;;7.64;95.05
58967;BME280;44744;51.894;5.080;2024-01-30T05:28:49;102561.02;;;7.70;95.06
58967;BME280;44744;51.894;5.080;2024-01-30T05:33:49;102565.15;;;7.76;94.97
58967;BME280;44744;51.894;5.080;2024-01-30T05:38:53;102567.55;;;7.79;95.01
58967;BME280;44744;51.894;5.080;2024-01-30T05:43:53;102565.38;;;7.83;95.11
58967;BME280;44744;51.894;5.080;2024-01-30T05:48:54;102567.45;;;7.86;95.12
58967;BME280;44744;51.894;5.080;2024-01-30T05:53:54;102564.41;;;7.90;94.95
58967;BME280;44744;51.894;5.080;2024-01-30T05:58:55;102564.38;;;7.92;95.02
58967;BME280;44744;51.894;5.080;2024-01-30T06:03:55;102573.49;;;7.94;95.05
58967;BME280;44744;51.894;5.080;2024-01-30T06:08:56;102566.05;;;7.96;95.10
58967;BME280;44744;51.894;5.080;2024-01-30T06:13:56;102570.61;;;7.97;95.05
58967;BME280;44744;51.894;5.080;2024-01-30T06:18:57;102579.08;;;7.98;94.99
58967;BME280;44744;51.894;5.080;2024-01-30T06:24:00;102580.31;;;7.98;94.95
58967;BME280;44744;51.894;5.080;2024-01-30T06:29:00;102582.71;;;8.00;95.11
58967;BME280;44744;51.894;5.080;2024-01-30T06:34:01;102591.52;;;8.02;95.09
58967;BME280;44744;51.894;5.080;2024-01-30T06:39:02;102589.05;;;8.02;95.09
58967;BME280;44744;51.894;5.080;2024-01-30T06:44:03;102594.16;;;8.01;95.11
58967;BME280;44744;51.894;5.080;2024-01-30T06:49:05;102594.86;;;8.01;94.91
58967;BME280;44744;51.894;5.080;2024-01-30T06:54:05;102597.49;;;8.02;95.04
58967;BME280;44744;51.894;5.080;2024-01-30T06:59:05;102599.08;;;8.02;95.01
58967;BME280;44744;51.894;5.080;2024-01-30T07:04:06;102597.52;;;8.01;95.08
58967;BME280;44744;51.894;5.080;2024-01-30T07:09:06;102599.27;;;8.01;94.98
58967;BME280;44744;51.894;5.080;2024-01-30T07:14:08;102601.20;;;8.02;94.90
58967;BME280;44744;51.894;5.080;2024-01-30T07:19:09;102604.71;;;8.02;95.00
58967;BME280;44744;51.894;5.080;2024-01-30T07:24:09;102604.37;;;8.02;95.09
58967;BME280;44744;51.894;5.080;2024-01-30T07:29:10;102615.98;;;8.04;95.04
58967;BME280;44744;51.894;5.080;2024-01-30T07:34:10;102620.89;;;8.05;95.23
58967;BME280;44744;51.894;5.080;2024-01-30T07:39:10;102629.13;;;8.07;95.20
58967;BME280;44744;51.894;5.080;2024-01-30T07:44:11;102637.56;;;8.09;95.31
58967;BME280;44744;51.894;5.080;2024-01-30T07:49:14;102642.26;;;8.12;95.41
58967;BME280;44744;51.894;5.080;2024-01-30T07:54:14;102640.67;;;8.13;95.51
58967;BME280;44744;51.894;5.080;2024-01-30T07:59:15;102641.17;;;8.15;95.69
58967;BME280;44744;51.894;5.080;2024-01-30T08:04:15;102642.33;;;8.19;95.88
58967;BME280;44744;51.894;5.080;2024-01-30T08:09:15;102637.30;;;8.25;95.98
58967;BME280;44744;51.894;5.080;2024-01-30T08:14:16;102639.50;;;8.30;96.11
58967;BME280;44744;51.894;5.080;2024-01-30T08:19:16;102642.39;;;8.37;96.32
58967;BME280;44744;51.894;5.080;2024-01-30T08:24:17;102645.63;;;8.43;96.40
58967;BME280;44744;51.894;5.080;2024-01-30T08:29:17;102645.40;;;8.48;96.43
58967;BME280;44744;51.894;5.080;2024-01-30T08:34:17;102644.41;;;8.54;96.43
58967;BME280;44744;51.894;5.080;2024-01-30T08:39:18;102637.44;;;8.60;96.56
58967;BME280;44744;51.894;5.080;2024-01-30T08:44:19;102646.83;;;8.67;96.96
58967;BME280;44744;51.894;5.080;2024-01-30T08:49:20;102652.56;;;8.72;97.04
58967;BME280;44744;51.894;5.080;2024-01-30T08:54:20;102656.34;;;8.78;96.98
58967;BME280;44744;51.894;5.080;2024-01-30T08:59:20;102657.98;;;8.83;97.06
58967;BME280;44744;51.894;5.080;2024-01-30T09:04:21;102664.42;;;8.89;96.97
58967;BME280;44744;51.894;5.080;2024-01-30T09:09:21;102671.94;;;8.93;96.90
58967;BME280;44744;51.894;5.080;2024-01-30T09:14:22;102674.00;;;8.96;97.00
58967;BME280;44744;51.894;5.080;2024-01-30T09:19:23;102671.45;;;9.00;96.93
58967;BME280;44744;51.894;5.080;2024-01-30T09:24:23;102669.61;;;9.03;96.99
58967;BME280;44744;51.894;5.080;2024-01-30T09:29:23;102682.77;;;9.08;97.13
58967;BME280;44744;51.894;5.080;2024-01-30T09:34:24;102682.17;;;9.12;97.07
58967;BME280;44744;51.894;5.080;2024-01-30T09:39:24;102684.01;;;9.16;97.00
58967;BME280;44744;51.894;5.080;2024-01-30T09:44:25;102690.12;;;9.20;97.13
58967;BME280;44744;51.894;5.080;2024-01-30T09:49:32;102700.44;;;9.25;97.07
58967;BME280;44744;51.894;5.080;2024-01-30T09:54:33;102708.10;;;9.31;97.34
58967;BME280;44744;51.894;5.080;2024-01-30T09:59:34;102710.09;;;9.36;97.19
58967;BME280;44744;51.894;5.080;2024-01-30T10:04:35;102709.63;;;9.42;97.28
58967;BME280;44744;51.894;5.080;2024-01-30T10:09:36;102711.79;;;9.49;97.32
58967;BME280;44744;51.894;5.080;2024-01-30T10:14:40;102714.13;;;9.55;97.30
58967;BME280;44744;51.894;5.080;2024-01-30T10:19:41;102720.98;;;9.65;97.16
58967;BME280;44744;51.894;5.080;2024-01-30T10:24:42;102728.56;;;9.75;97.28
58967;BME280;44744;51.894;5.080;2024-01-30T10:29:43;102711.45;;;9.82;96.79
58967;BME280;44744;51.894;5.080;2024-01-30T10:34:43;102717.17;;;9.86;96.63
58967;BME280;44744;51.894;5.080;2024-01-30T10:39:45;102716.95;;;9.88;96.33
58967;BME280;44744;51.894;5.080;2024-01-30T10:44:57;102731.20;;;9.91;96.26
58967;BME280;44744;51.894;5.080;2024-01-30T10:50:00;102732.73;;;9.94;95.70
58967;BME280;44744;51.894;5.080;2024-01-30T10:55:04;102741.86;;;9.97;94.84
58967;BME280;44744;51.894;5.080;2024-01-30T11:00:10;102751.70;;;9.99;93.78
58967;BME280;44744;51.894;5.080;2024-01-30T11:05:12;102752.08;;;9.99;92.48
58967;BME280;44744;51.894;5.080;2024-01-30T11:10:12;102748.05;;;9.97;91.62
58967;BME280;44744;51.894;5.080;2024-01-30T11:15:16;102743.64;;;9.96;91.03
58967;BME280;44744;51.894;5.080;2024-01-30T11:20:27;102751.27;;;9.95;90.88
58967;BME280;44744;51.894;5.080;2024-01-30T11:25:32;102754.17;;;9.91;90.25
58967;BME280;44744;51.894;5.080;2024-01-30T11:30:33;102757.92;;;9.81;89.62
58967;BME280;44744;51.894;5.080;2024-01-30T11:35:35;102764.86;;;9.70;88.95
58967;BME280;44744;51.894;5.080;2024-01-30T11:40:37;102764.88;;;9.61;88.60
58967;BME280;44744;51.894;5.080;2024-01-30T11:45:38;102763.43;;;9.54;87.99
58967;BME280;44744;51.894;5.080;2024-01-30T11:50:39;102765.42;;;9.52;87.16
58967;BME280;44744;51.894;5.080;2024-01-30T11:55:51;102772.13;;;9.51;87.22
58967;BME280;44744;51.894;5.080;2024-01-30T12:00:55;102766.39;;;9.56;86.60
58967;BME280;44744;51.894;5.080;2024-01-30T12:05:57;102767.15;;;9.62;86.91
58967;BME280;44744;51.894;5.080;2024-01-30T12:11:00;102771.91;;;9.62;86.43
58967;BME280;44744;51.894;5.080;2024-01-30T12:16:06;102778.57;;;9.56;86.05
58967;BME280;44744;51.894;5.080;2024-01-30T12:21:06;102792.65;;;9.41;86.04
58967;BME280;44744;51.894;5.080;2024-01-30T12:26:09;102797.31;;;9.18;86.77
58967;BME280;44744;51.894;5.080;2024-01-30T12:31:10;102809.55;;;9.05;87.57
58967;BME280;44744;51.894;5.080;2024-01-30T12:36:11;102818.41;;;8.92;87.85
58967;BME280;44744;51.894;5.080;2024-01-30T12:41:12;102826.86;;;8.82;88.46
58967;BME280;44744;51.894;5.080;2024-01-30T12:46:13;102834.91;;;8.75;88.48
58967;BME280;44744;51.894;5.080;2024-01-30T12:51:16;102836.44;;;8.68;88.21
58967;BME280;44744;51.894;5.080;2024-01-30T12:56:16;102829.41;;;8.65;88.25
58967;BME280;44744;51.894;5.080;2024-01-30T13:01:17;102837.04;;;8.62;88.07
58967;BME280;44744;51.894;5.080;2024-01-30T13:06:17;102838.98;;;8.62;87.71
58967;BME280;44744;51.894;5.080;2024-01-30T13:11:18;102842.34;;;8.62;87.79
58967;BME280;44744;51.894;5.080;2024-01-30T13:16:18;102840.55;;;8.63;87.94
58967;BME280;44744;51.894;5.080;2024-01-30T13:21:19;102843.00;;;8.65;87.94
58967;BME280;44744;51.894;5.080;2024-01-30T13:26:19;102840.70;;;8.66;88.10
58967;BME280;44744;51.894;5.080;2024-01-30T13:31:20;102845.77;;;8.68;87.97
58967;BME280;44744;51.894;5.080;2024-01-30T13:36:21;102849.48;;;8.69;88.01
58967;BME280;44744;51.894;5.080;2024-01-30T13:41:21;102860.92;;;8.70;88.02
58967;BME280;44744;51.894;5.080;2024-01-30T13:46:23;102860.28;;;8.65;87.99
58967;BME280;44744;51.894;5.080;2024-01-30T13:51:23;102866.56;;;8.58;88.27
58967;BME280;44744;51.894;5.080;2024-01-30T13:56:23;102867.98;;;8.57;88.75
58967;BME280;44744;51.894;5.080;2024-01-30T14:01:24;102878.39;;;8.57;88.95
58967;BME280;44744;51.894;5.080;2024-01-30T14:06:25;102882.84;;;8.54;89.34
58967;BME280;44744;51.894;5.080;2024-01-30T14:11:25;102886.22;;;8.52;89.42
58967;BME280;44744;51.894;5.080;2024-01-30T14:16:26;102884.13;;;8.50;89.26
58967;BME280;44744;51.894;5.080;2024-01-30T14:21:26;102898.27;;;8.47;89.55
58967;BME280;44744;51.894;5.080;2024-01-30T14:26:27;102907.47;;;8.43;89.81
58967;BME280;44744;51.894;5.080;2024-01-30T14:31:27;102917.59;;;8.38;90.30
58967;BME280;44744;51.894;5.080;2024-01-30T14:36:27;102920.29;;;8.33;90.53
58967;BME280;44744;51.894;5.080;2024-01-30T14:41:31;102923.19;;;8.26;90.84
58967;BME280;44744;51.894;5.080;2024-01-30T14:46:32;102923.39;;;8.24;91.15
58967;BME280;44744;51.894;5.080;2024-01-30T14:51:32;102920.83;;;8.18;91.87
58967;BME280;44744;51.894;5.080;2024-01-30T14:56:33;102926.70;;;8.12;92.31
58967;BME280;44744;51.894;5.080;2024-01-30T15:01:34;102929.91;;;8.08;92.79
58967;BME280;44744;51.894;5.080;2024-01-30T15:06:34;102936.48;;;8.05;93.48
58967;BME280;44744;51.894;5.080;2024-01-30T15:11:35;102951.16;;;7.99;93.85
58967;BME280;44744;51.894;5.080;2024-01-30T15:16:36;102952.44;;;7.95;94.04
58967;BME280;44744;51.894;5.080;2024-01-30T15:21:37;102959.19;;;7.90;94.61
58967;BME280;44744;51.894;5.080;2024-01-30T15:26:37;102963.49;;;7.83;94.97
58967;BME280;44744;51.894;5.080;2024-01-30T15:31:38;102967.21;;;7.79;95.35
58967;BME280;44744;51.894;5.080;2024-01-30T15:36:38;102978.36;;;7.74;95.80
58967;BME280;44744;51.894;5.080;2024-01-30T15:41:39;102985.11;;;7.69;96.24
58967;BME280;44744;51.894;5.080;2024-01-30T15:46:40;102991.45;;;7.67;96.36
58967;BME280;44744;51.894;5.080;2024-01-30T15:51:40;103005.58;;;7.63;96.59
58967;BME280;44744;51.894;5.080;2024-01-30T15:56:41;103012.63;;;7.61;96.96
58967;BME280;44744;51.894;5.080;2024-01-30T16:01:41;103020.39;;;7.59;96.90
58967;BME280;44744;51.894;5.080;2024-01-30T16:06:44;103033.96;;;7.58;97.18
58967;BME280;44744;51.894;5.080;2024-01-30T16:11:44;103033.29;;;7.56;97.18
58967;BME280;44744;51.894;5.080;2024-01-30T16:16:45;103050.90;;;7.54;97.66
58967;BME280;44744;51.894;5.080;2024-01-30T16:21:45;103057.61;;;7.50;98.19
58967;BME280;44744;51.894;5.080;2024-01-30T16:26:46;103055.17;;;7.49;97.95
58967;BME280;44744;51.894;5.080;2024-01-30T16:31:47;103061.52;;;7.46;98.47
58967;BME280;44744;51.894;5.080;2024-01-30T16:36:47;103064.70;;;7.42;98.56
58967;BME280;44744;51.894;5.080;2024-01-30T16:41:48;103073.19;;;7.39;98.84
58967;BME280;44744;51.894;5.080;2024-01-30T16:46:49;103080.43;;;7.35;99.19
58967;BME280;44744;51.894;5.080;2024-01-30T16:51:49;103091.89;;;7.32;99.11
58967;BME280;44744;51.894;5.080;2024-01-30T16:56:53;103108.62;;;7.30;99.44
58967;BME280;44744;51.894;5.080;2024-01-30T17:01:53;103111.80;;;7.27;99.69
58967;BME280;44744;51.894;5.080;2024-01-30T17:06:54;103117.78;;;7.25;99.75
58967;BME280;44744;51.894;5.080;2024-01-30T17:11:54;103120.09;;;7.22;99.99
58967;BME280;44744;51.894;5.080;2024-01-30T17:16:54;103121.86;;;7.20;100.00
58967;BME280;44744;51.894;5.080;2024-01-30T17:21:55;103129.80;;;7.14;100.00
58967;BME280;44744;51.894;5.080;2024-01-30T17:26:55;103140.02;;;7.12;100.00
58967;BME280;44744;51.894;5.080;2024-01-30T17:31:56;103152.70;;;7.09;100.00
58967;BME280;44744;51.894;5.080;2024-01-30T17:36:57;103160.80;;;7.06;100.00
58967;BME280;44744;51.894;5.080;2024-01-30T17:41:57;103163.27;;;7.06;100.00
58967;BME280;44744;51.894;5.080;2024-01-30T17:46:58;103171.36;;;7.04;100.00
58967;BME280;44744;51.894;5.080;2024-01-30T17:51:58;103193.00;;;7.04;100.00
58967;BME280;44744;51.894;5.080;2024-01-30T17:56:59;103206.73;;;7.00;100.00
58967;BME280;44744;51.894;5.080;2024-01-30T18:01:59;103211.50;;;6.96;100.00
58967;BME280;44744;51.894;5.080;2024-01-30T18:07:00;103215.73;;;6.94;100.00
58967;BME280;44744;51.894;5.080;2024-01-30T18:12:01;103228.75;;;6.89;100.00
58967;BME280;44744;51.894;5.080;2024-01-30T18:17:02;103235.61;;;6.85;100.00
58967;BME280;44744;51.894;5.080;2024-01-30T18:22:03;103240.38;;;6.84;100.00
58967;BME280;44744;51.894;5.080;2024-01-30T18:27:04;103241.24;;;6.83;100.00
58967;BME280;44744;51.894;5.080;2024-01-30T18:32:05;103250.59;;;6.82;100.00
58967;BME280;44744;51.894;5.080;2024-01-30T18:37:05;103259.02;;;6.82;100.00
58967;BME280;44744;51.894;5.080;2024-01-30T18:42:08;103263.59;;;6.82;100.00
58967;BME280;44744;51.894;5.080;2024-01-30T18:47:08;103271.51;;;6.79;100.00
58967;BME280;44744;51.894;5.080;2024-01-30T18:52:09;103278.89;;;6.75;100.00
58967;BME280;44744;51.894;5.080;2024-01-30T18:57:09;103289.09;;;6.74;100.00
58967;BME280;44744;51.894;5.080;2024-01-30T19:02:09;103292.98;;;6.73;100.00
58967;BME280;44744;51.894;5.080;2024-01-30T19:07:11;103290.85;;;6.72;100.00
58967;BME280;44744;51.894;5.080;2024-01-30T19:12:12;103296.30;;;6.69;100.00
58967;BME280;44744;51.894;5.080;2024-01-30T19:17:12;103297.89;;;6.67;100.00
58967;BME280;44744;51.894;5.080;2024-01-30T19:22:13;103300.17;;;6.65;100.00
58967;BME280;44744;51.894;5.080;2024-01-30T19:27:13;103305.62;;;6.65;100.00
58967;BME280;44744;51.894;5.080;2024-01-30T19:32:13;103325.13;;;6.61;100.00
58967;BME280;44744;51.894;5.080;2024-01-30T19:37:18;103336.91;;;6.59;100.00
58967;BME280;44744;51.894;5.080;2024-01-30T19:42:22;103344.82;;;6.57;100.00
58967;BME280;44744;51.894;5.080;2024-01-30T19:47:23;103352.55;;;6.56;100.00
58967;BME280;44744;51.894;5.080;2024-01-30T19:52:23;103353.27;;;6.55;100.00
58967;BME280;44744;51.894;5.080;2024-01-30T19:57:24;103359.75;;;6.53;100.00
58967;BME280;44744;51.894;5.080;2024-01-30T20:02:24;103364.31;;;6.49;100.00
58967;BME280;44744;51.894;5.080;2024-01-30T20:07:25;103361.31;;;6.46;100.00
58967;BME280;44744;51.894;5.080;2024-01-30T20:12:26;103368.34;;;6.46;100.00
58967;BME280;44744;51.894;5.080;2024-01-30T20:17:26;103376.09;;;6.46;100.00
58967;BME280;44744;51.894;5.080;2024-01-30T20:22:27;103388.05;;;6.46;100.00
58967;BME280;44744;51.894;5.080;2024-01-30T20:27:27;103389.79;;;6.46;100.00
58967;BME280;44744;51.894;5.080;2024-01-30T20:32:28;103394.19;;;6.46;100.00
58967;BME280;44744;51.894;5.080;2024-01-30T20:37:29;103398.94;;;6.47;100.00
58967;BME280;44744;51.894;5.080;2024-01-30T20:42:30;103402.98;;;6.47;100.00
58967;BME280;44744;51.894;5.080;2024-01-30T20:47:30;103406.33;;;6.45;100.00
58967;BME280;44744;51.894;5.080;2024-01-30T20:52:31;103410.18;;;6.44;100.00
58967;BME280;44744;51.894;5.080;2024-01-30T20:57:32;103420.02;;;6.42;100.00
58967;BME280;44744;51.894;5.080;2024-01-30T21:02:36;103427.40;;;6.38;100.00
58967;BME280;44744;51.894;5.080;2024-01-30T21:07:40;103427.71;;;6.33;100.00
58967;BME280;44744;51.894;5.080;2024-01-30T21:12:41;103438.27;;;6.31;100.00
58967;BME280;44744;51.894;5.080;2024-01-30T21:17:41;103445.80;;;6.25;100.00
58967;BME280;44744;51.894;5.080;2024-01-30T21:22:42;103458.77;;;6.20;100.00
58967;BME280;44744;51.894;5.080;2024-01-30T21:27:42;103449.45;;;6.19;100.00
58967;BME280;44744;51.894;5.080;2024-01-30T21:32:42;103454.39;;;6.23;100.00
58967;BME280;44744;51.894;5.080;2024-01-30T21:37:43;103462.48;;;6.28;100.00
58967;BME280;44744;51.894;5.080;2024-01-30T21:42:43;103473.77;;;6.31;100.00
58967;BME280;44744;51.894;5.080;2024-01-30T21:47:46;103477.80;;;6.31;100.00
58967;BME280;44744;51.894;5.080;2024-01-30T21:52:54;103479.88;;;6.27;100.00
58967;BME280;44744;51.894;5.080;2024-01-30T21:57:54;103485.48;;;6.21;100.00
58967;BME280;44744;51.894;5.080;2024-01-30T22:02:55;103485.46;;;6.17;100.00
58967;BME280;44744;51.894;5.080;2024-01-30T22:07:55;103486.64;;;6.10;100.00
58967;BME280;44744;51.894;5.080;2024-01-30T22:12:55;103493.06;;;5.98;100.00
58967;BME280;44744;51.894;5.080;2024-01-30T22:17:56;103494.05;;;5.90;100.00
58967;BME280;44744;51.894;5.080;2024-01-30T22:22:57;103506.49;;;5.87;100.00
58967;BME280;44744;51.894;5.080;2024-01-30T22:27:57;103506.67;;;5.88;100.00
58967;BME280;44744;51.894;5.080;2024-01-30T22:32:58;103499.67;;;5.91;100.00
58967;BME280;44744;51.894;5.080;2024-01-30T22:37:58;103500.04;;;5.94;100.00
58967;BME280;44744;51.894;5.080;2024-01-30T22:42:59;103496.70;;;5.95;100.00
58967;BME280;44744;51.894;5.080;2024-01-30T22:47:59;103500.94;;;5.95;100.00
58967;BME280;44744;51.894;5.080;2024-01-30T22:52:59;103498.99;;;5.93;100.00
58967;BME280;44744;51.894;5.080;2024-01-30T22:58:00;103506.71;;;5.93;100.00
58967;BME280;44744;51.894;5.080;2024-01-30T23:03:00;103506.02;;;5.95;100.00
58967;BME280;44744;51.894;5.080;2024-01-30T23:08:00;103508.48;;;5.97;99.98
58967;BME280;44744;51.894;5.080;2024-01-30T23:13:01;103516.39;;;5.94;99.83
58967;BME280;44744;51.894;5.080;2024-01-30T23:18:02;103523.04;;;5.92;99.61
58967;BME280;44744;51.894;5.080;2024-01-30T23:23:03;103524.36;;;5.81;98.93
58967;BME280;44744;51.894;5.080;2024-01-30T23:28:04;103533.05;;;5.71;99.01
58967;BME280;44744;51.894;5.080;2024-01-30T23:33:05;103526.15;;;5.64;98.86
58967;BME280;44744;51.894;5.080;2024-01-30T23:38:05;103528.77;;;5.63;99.07
58967;BME280;44744;51.894;5.080;2024-01-30T23:43:06;103533.38;;;5.67;99.23
58967;BME280;44744;51.894;5.080;2024-01-30T23:48:07;103538.61;;;5.65;98.76
58967;BME280;44744;51.894;5.080;2024-01-30T23:53:08;103533.80;;;5.55;98.41
58967;BME280;44744;51.894;5.080;2024-01-30T23:58:09;103538.15;;;5.51;98.39
